Time;durP1;ratioP1;P1;durP2;ratioP2;P2;SDS_P1;SDS_P2;PMS_P1;PMS_P2;Temp;Humidity;BMP_temperature;BMP_pressure;BME280_temperature;BME280_humidity;BME280_pressure;Samples;Min_cycle;Max_cycle;Signal;HPM_P1;HPM_P2
2022/04/01 00:00:15;;;;;;;5.10;2.85;;;;;;;4.84;59.18;100237.81;4980822;28;109509;-65
2022/04/01 00:02:44;;;;;;;5.72;3.03;;;;;;;4.82;59.20;100235.28;4971691;28;109295;-65
2022/04/01 00:05:11;;;;;;;6.13;3.22;;;;;;;4.80;59.16;100226.59;4988204;28;124136;-65
2022/04/01 00:07:40;;;;;;;5.40;3.03;;;;;;;4.80;59.20;100225.72;4976850;28;123816;-65
2022/04/01 00:10:08;;;;;;;5.90;3.00;;;;;;;4.77;59.25;100229.31;4978486;28;108424;-65
2022/04/01 00:12:43;;;;;;;4.13;2.53;;;;;;;4.75;59.34;100232.88;4974209;28;109218;-65
2022/04/01 00:15:13;;;;;;;4.72;2.70;;;;;;;4.72;59.37;100244.31;4983679;28;124168;-66
2022/04/01 00:17:41;;;;;;;5.18;3.10;;;;;;;4.71;59.26;100247.84;4978485;28;124321;-66
2022/04/01 00:20:10;;;;;;;3.88;2.40;;;;;;;4.70;59.33;100251.38;4978542;28;110779;-66
2022/04/01 00:22:37;;;;;;;4.38;2.78;;;;;;;4.68;59.50;100248.78;4981434;28;109945;-68
2022/04/01 00:25:05;;;;;;;4.03;2.53;;;;;;;4.66;59.45;100249.75;4978165;28;124491;-67
2022/04/01 00:27:33;;;;;;;6.10;2.60;;;;;;;4.65;59.70;100253.28;4986446;28;124144;-67
2022/04/01 00:30:00;;;;;;;5.43;2.78;;;;;;;4.64;59.39;100256.81;4980978;28;109061;-66
2022/04/01 00:32:29;;;;;;;6.13;2.80;;;;;;;4.63;59.50;100255.06;4970732;28;108248;-67
2022/04/01 00:34:56;;;;;;;4.85;3.00;;;;;;;4.64;59.53;100251.56;4977022;28;124121;-67
2022/04/01 00:37:24;;;;;;;4.35;2.30;;;;;;;4.64;59.31;100257.66;4960755;28;124725;-66
2022/04/01 00:39:51;;;;;;;5.05;2.53;;;;;;;4.65;59.41;100258.50;4974067;28;109529;-67
2022/04/01 00:42:19;;;;;;;5.88;2.60;;;;;;;4.65;59.46;100258.50;4976302;28;108213;-67
2022/04/01 00:44:46;;;;;;;5.15;2.47;;;;;;;4.65;59.32;100253.28;4981832;28;123841;-67
2022/04/01 00:47:18;;;;;;;4.97;2.88;;;;;;;4.64;59.67;100267.31;4986074;28;123867;-67
2022/04/01 00:49:47;;;;;;;4.38;2.75;;;;;;;4.64;59.67;100262.06;4983359;28;108430;-67
2022/04/01 00:52:19;;;;;;;5.28;2.90;;;;;;;4.63;59.56;100260.31;4991055;28;108141;-68
2022/04/01 00:54:48;;;;;;;5.00;2.38;;;;;;;4.64;59.54;100267.31;4984554;28;124596;-68
2022/04/01 00:57:15;;;;;;;4.95;2.70;;;;;;;4.62;59.54;100264.72;4986820;28;125358;-68
2022/04/01 00:59:43;;;;;;;4.53;2.45;;;;;;;4.62;59.49;100263.88;4992377;28;109588;-68
2022/04/01 01:02:14;;;;;;;5.53;3.03;;;;;;;4.62;59.68;100269.13;4980381;28;108692;-68
2022/04/01 01:04:41;;;;;;;4.75;2.55;;;;;;;4.63;59.57;100268.19;4982792;28;125159;-68
2022/04/01 01:07:09;;;;;;;3.47;2.10;;;;;;;4.63;59.49;100270.81;4981405;28;124350;-69
2022/04/01 01:09:38;;;;;;;4.15;2.63;;;;;;;4.64;59.72;100272.53;4983855;28;109653;-68
2022/04/01 01:12:07;;;;;;;5.90;2.78;;;;;;;4.64;59.63;100272.53;4993501;28;109021;-68
2022/04/01 01:14:37;;;;;;;4.00;2.58;;;;;;;4.65;59.79;100266.38;4965861;28;123179;-68
2022/04/01 01:17:12;;;;;;;4.97;2.60;;;;;;;4.64;59.64;100272.53;4973443;28;123503;-64
2022/04/01 01:19:40;;;;;;;5.20;2.40;;;;;;;4.63;59.63;100271.69;4982748;28;108773;-64
2022/04/01 01:22:08;;;;;;;4.32;2.70;;;;;;;4.63;59.58;100266.44;4982843;28;108434;-65
2022/04/01 01:24:38;;;;;;;4.20;2.80;;;;;;;4.64;59.62;100272.53;4976604;28;123296;-68
2022/04/01 01:27:07;;;;;;;3.60;2.53;;;;;;;4.62;59.76;100279.59;4979953;28;122826;-68
2022/04/01 01:29:38;;;;;;;4.13;2.60;;;;;;;4.62;59.65;100279.59;4980795;28;109388;-70
2022/04/01 01:32:09;;;;;;;4.20;2.25;;;;;;;4.62;59.60;100277.84;4983425;28;109316;-68
2022/04/01 01:34:39;;;;;;;4.30;2.30;;;;;;;4.63;59.71;100276.06;4983174;28;125244;-69
2022/04/01 01:37:10;;;;;;;3.42;2.20;;;;;;;4.62;59.64;100274.38;4982380;28;124104;-68
2022/04/01 01:39:39;;;;;;;4.00;2.20;;;;;;;4.63;59.53;100276.06;4988247;28;108532;-68
2022/04/01 01:42:07;;;;;;;3.42;2.03;;;;;;;4.63;59.57;100283.94;4979709;28;108235;-67
2022/04/01 01:44:35;;;;;;;5.43;2.92;;;;;;;4.63;59.62;100276.94;4990421;28;123220;-68
2022/04/01 01:47:04;;;;;;;4.53;2.70;;;;;;;4.64;59.56;100272.53;4993129;28;123039;-68
2022/04/01 01:49:32;;;;;;;4.18;2.50;;;;;;;4.62;59.57;100264.72;4986012;28;108483;-68
2022/04/01 01:54:49;;;;;;;5.00;2.55;;;;;;;4.62;59.48;100279.59;4987573;28;123402;-68
2022/04/01 01:57:22;;;;;;;4.28;2.60;;;;;;;4.62;59.55;100287.47;4980718;28;125309;-68
2022/04/01 01:59:51;;;;;;;3.50;2.15;;;;;;;4.61;59.66;100277.88;4984798;28;109905;-68
2022/04/01 02:02:19;;;;;;;4.57;2.50;;;;;;;4.61;59.73;100291.00;4980868;28;109342;-67
2022/04/01 02:04:48;;;;;;;5.00;2.67;;;;;;;4.60;59.55;100294.53;4967562;28;123823;-67
2022/04/01 02:07:16;;;;;;;4.03;2.67;;;;;;;4.60;59.80;100294.53;4973247;28;123141;-67
2022/04/01 02:09:46;;;;;;;4.70;2.10;;;;;;;4.60;59.69;100305.03;4961793;28;108615;-67
2022/04/01 02:12:16;;;;;;;5.07;2.60;;;;;;;4.58;59.88;100298.97;4971819;28;108151;-67
2022/04/01 02:14:45;;;;;;;4.40;2.58;;;;;;;4.58;59.79;100305.06;4974089;28;123297;-67
2022/04/01 02:17:13;;;;;;;4.53;2.78;;;;;;;4.59;59.80;100303.28;4968125;28;123599;-67
2022/04/01 02:19:40;;;;;;;3.83;2.38;;;;;;;4.60;59.78;100302.41;4983172;28;108280;-67
2022/04/01 02:22:08;;;;;;;3.53;2.45;;;;;;;4.60;59.74;100316.38;4981514;28;108536;-66
2022/04/01 02:24:38;;;;;;;4.47;2.88;;;;;;;4.60;59.83;100307.66;4978511;28;124309;-67
2022/04/01 02:27:07;;;;;;;4.78;2.53;;;;;;;4.60;59.58;100318.13;4979908;28;124182;-67
2022/04/01 02:29:34;;;;;;;6.47;2.67;;;;;;;4.60;59.82;100323.38;4978232;28;108413;-67
2022/04/01 02:32:34;;;;;;;4.43;2.58;;;;;;;4.59;59.79;100317.25;4989232;28;109340;-67
2022/04/01 02:35:15;;;;;;;5.03;2.80;;;;;;;4.58;59.85;100319.94;4976601;28;123387;-67
2022/04/01 02:37:47;;;;;;;3.85;2.55;;;;;;;4.58;59.71;100319.94;4975943;28;123497;-67
2022/04/01 02:40:15;;;;;;;3.65;2.72;;;;;;;4.58;59.94;100330.44;4981730;28;109099;-67
2022/04/01 02:42:42;;;;;;;4.55;2.60;;;;;;;4.56;59.86;100319.97;4982489;28;109371;-67
2022/04/01 02:45:18;;;;;;;;;;;;;;;4.55;59.56;100328.75;4992644;28;126531;-67
2022/04/01 02:47:45;;;;;;;3.97;2.65;;;;;;;4.56;59.67;100334.84;4984650;28;123183;-67
2022/04/01 02:50:12;;;;;;;4.80;2.70;;;;;;;4.55;59.72;100330.50;4987436;28;110259;-67
2022/04/01 02:52:39;;;;;;;4.05;2.63;;;;;;;4.56;59.67;100337.47;4987136;28;109141;-67
2022/04/01 02:55:08;;;;;;;4.57;2.60;;;;;;;4.55;59.74;100333.13;4990182;28;123922;-66
2022/04/01 02:57:36;;;;;;;4.80;2.92;;;;;;;4.55;59.87;100335.75;4992217;28;123081;-67
2022/04/01 03:00:09;;;;;;;4.07;2.65;;;;;;;4.56;59.77;100332.22;4986777;28;108033;-66
2022/04/01 03:02:47;;;;;;;5.25;3.15;;;;;;;4.55;59.88;100347.09;4973422;28;108358;-67
2022/04/01 03:05:15;;;;;;;4.63;2.80;;;;;;;4.56;59.70;100347.94;4988618;28;123684;-67
2022/04/01 03:07:42;;;;;;;4.15;2.58;;;;;;;4.56;59.74;100342.69;4991057;28;123935;-67
2022/04/01 03:10:09;;;;;;;5.80;3.03;;;;;;;4.57;59.88;100347.06;4980744;28;108373;-67
2022/04/01 03:12:37;;;;;;;5.30;3.00;;;;;;;4.58;59.64;100354.03;4984717;28;109281;-67
2022/04/01 03:15:33;;;;;;;4.68;3.00;;;;;;;4.59;59.75;100355.75;4973537;28;124161;-68
2022/04/01 03:18:32;;;;;;;5.38;3.53;;;;;;;4.58;59.69;100356.66;4969998;28;124576;-68
2022/04/01 03:20:59;;;;;;;5.32;3.25;;;;;;;4.55;59.76;100367.22;4978115;28;108540;-67
2022/04/01 03:23:27;;;;;;;5.55;3.15;;;;;;;4.55;59.56;100375.09;4985170;28;107998;-68
2022/04/01 03:25:55;;;;;;;5.28;3.63;;;;;;;4.55;59.79;100377.72;4985134;28;123177;-68
2022/04/01 03:28:25;;;;;;;6.35;3.53;;;;;;;4.56;59.84;100382.03;4985499;28;123116;-68
2022/04/01 03:30:59;;;;;;;6.20;3.95;;;;;;;4.55;59.85;100382.97;4981874;28;108405;-68
2022/04/01 03:33:33;;;;;;;6.72;3.75;;;;;;;4.55;59.71;100388.22;4983585;28;111519;-68
2022/04/01 03:36:02;;;;;;;5.32;3.63;;;;;;;4.55;59.69;100393.44;4990965;28;123753;-67
2022/04/01 03:38:34;;;;;;;5.53;3.75;;;;;;;4.53;59.67;100390.00;4972671;28;123048;-68
2022/04/01 03:41:05;;;;;;;7.45;4.07;;;;;;;4.52;59.81;100389.16;4974592;28;109668;-68
2022/04/01 03:43:35;;;;;;;6.28;3.70;;;;;;;4.51;59.68;100403.16;4981041;28;109104;-68
2022/04/01 03:46:10;;;;;;;6.60;4.00;;;;;;;4.51;59.63;100389.19;4982469;28;123158;-68
2022/04/01 03:48:42;;;;;;;5.47;3.47;;;;;;;4.51;59.72;100391.81;4979396;28;123564;-68
2022/04/01 03:51:17;;;;;;;5.70;3.55;;;;;;;4.49;59.84;100390.09;4991890;28;109416;-67
2022/04/01 03:53:57;;;;;;;5.65;3.70;;;;;;;4.48;59.90;100398.88;4992291;28;108264;-67
2022/04/01 03:56:57;;;;;;;5.55;3.58;;;;;;;4.48;59.79;100409.34;4981059;28;123134;-66
2022/04/01 03:59:44;;;;;;;7.57;3.80;;;;;;;4.46;59.82;100395.44;4990075;28;124524;-66
2022/04/01 04:02:34;;;;;;;4.75;3.30;;;;;;;4.45;59.86;100398.94;4986079;28;110054;-67
2022/04/01 04:05:02;;;;;;;5.00;3.47;;;;;;;4.44;59.66;100402.44;4988536;28;108119;-66
2022/04/01 04:07:31;;;;;;;5.75;3.47;;;;;;;4.43;60.02;100413.00;4976957;28;124113;-66
2022/04/01 04:10:03;;;;;;;6.78;3.13;;;;;;;4.42;59.70;100420.00;4985029;28;123658;-67
2022/04/01 04:12:33;;;;;;;5.32;3.42;;;;;;;4.44;59.77;100433.91;4967211;28;108420;-66
2022/04/01 04:15:07;;;;;;;5.20;3.33;;;;;;;4.45;59.86;100421.69;4986192;28;108088;-66
2022/04/01 04:17:37;;;;;;;4.88;3.20;;;;;;;4.46;59.83;100437.38;4978855;28;123309;-67
2022/04/01 04:20:32;;;;;;;5.72;3.60;;;;;;;4.46;59.57;100437.38;4981798;28;123038;-66
2022/04/01 04:23:14;;;;;;;5.28;3.47;;;;;;;4.45;59.67;100435.66;4969364;28;108385;-67
2022/04/01 04:25:53;;;;;;;7.75;3.42;;;;;;;4.45;59.73;100440.91;4990263;28;109007;-67
2022/04/01 04:28:25;;;;;;;6.88;3.67;;;;;;;4.45;59.99;100446.13;4984726;28;123407;-67
2022/04/01 04:31:09;;;;;;;5.63;3.53;;;;;;;4.46;59.66;100457.47;4987316;28;123543;-67
2022/04/01 04:33:54;;;;;;;6.38;3.28;;;;;;;4.44;59.62;100454.88;4961085;28;109638;-67
2022/04/01 04:36:36;;;;;;;4.78;3.17;;;;;;;4.43;59.41;100457.56;4983016;28;109083;-67
2022/04/01 04:39:07;;;;;;;6.50;3.83;;;;;;;4.42;59.71;100461.94;4986973;28;123352;-66
2022/04/01 04:41:36;;;;;;;5.60;3.45;;;;;;;4.41;59.72;100459.38;4977001;28;123043;-66
2022/04/01 04:44:09;;;;;;;7.82;3.92;;;;;;;4.41;59.72;100465.47;4986170;28;108913;-66
2022/04/01 04:46:42;;;;;;;7.05;4.00;;;;;;;4.42;59.59;100477.66;4985765;28;108116;-66
2022/04/01 04:49:10;;;;;;;6.25;4.00;;;;;;;4.43;59.62;100471.53;4977360;28;123926;-66
2022/04/01 04:51:41;;;;;;;6.65;4.25;;;;;;;4.42;59.17;100472.44;4973485;28;124526;-65
2022/04/01 04:54:39;;;;;;;7.60;4.55;;;;;;;4.42;59.52;100479.44;4985354;28;109430;-65
2022/04/01 04:57:28;;;;;;;6.68;4.18;;;;;;;4.41;59.54;100483.84;4989422;28;108529;-65
2022/04/01 04:59:58;;;;;;;6.95;4.47;;;;;;;4.40;59.66;100484.72;4984173;28;123304;-66
2022/04/01 05:02:55;;;;;;;7.72;4.75;;;;;;;4.39;59.54;100488.25;4976284;28;123468;-66
2022/04/01 05:05:54;;;;;;;6.85;4.18;;;;;;;4.39;59.61;100487.38;4986666;28;109508;-66
2022/04/01 05:08:54;;;;;;;7.10;4.38;;;;;;;4.39;59.53;100506.63;4986786;28;109608;-66
2022/04/01 05:12:02;;;;;;;6.78;4.10;;;;;;;4.38;59.57;100507.50;4973919;28;123283;-66
2022/04/01 05:15:08;;;;;;;6.55;4.03;;;;;;;4.37;59.47;100521.53;4972562;28;123910;-65
2022/04/01 05:17:52;;;;;;;7.18;4.03;;;;;;;4.38;59.40;100506.66;4959912;28;109646;-65
2022/04/01 05:20:28;;;;;;;5.22;3.22;;;;;;;4.38;59.34;100525.84;4987856;28;108154;-65
2022/04/01 05:22:58;;;;;;;;;;;;;;;4.37;59.26;100532.00;4980134;28;123366;-65
2022/04/01 05:25:33;;;;;;;5.90;3.80;;;;;;;4.39;59.12;100535.44;4980028;28;124107;-65
2022/04/01 05:28:20;;;;;;;6.68;4.10;;;;;;;4.39;59.33;100539.81;4985257;28;109399;-64
2022/04/01 05:31:02;;;;;;;7.05;4.05;;;;;;;4.38;59.20;100544.19;4976173;28;109145;-65
2022/04/01 05:33:40;;;;;;;6.18;4.00;;;;;;;4.38;59.32;100544.19;4992107;28;123157;-65
2022/04/01 05:36:11;;;;;;;6.07;3.83;;;;;;;4.39;59.15;100545.94;4975411;28;123053;-65
2022/04/01 05:38:40;;;;;;;8.63;4.00;;;;;;;4.40;59.23;100552.03;4993216;28;108796;-65
2022/04/01 05:41:08;;;;;;;6.68;3.92;;;;;;;4.40;59.31;100558.13;4982605;28;108807;-65
2022/04/01 05:43:38;;;;;;;7.18;3.72;;;;;;;4.41;59.15;100554.63;4984284;28;123340;-65
2022/04/01 05:46:18;;;;;;;6.10;3.90;;;;;;;4.41;58.95;100554.63;4984250;28;124261;-66
2022/04/01 05:48:47;;;;;;;7.90;3.88;;;;;;;4.41;59.04;100565.13;4973174;28;108322;-65
2022/04/01 05:51:15;;;;;;;8.50;3.90;;;;;;;4.40;59.05;100563.38;4974534;28;108112;-65
2022/04/01 05:53:50;;;;;;;5.90;3.58;;;;;;;4.41;58.69;100575.59;4992117;28;123188;-65
2022/04/01 05:56:18;;;;;;;5.93;3.65;;;;;;;4.41;58.79;100574.75;4961949;28;123190;-65
2022/04/01 05:58:47;;;;;;;6.15;3.40;;;;;;;4.41;58.89;100575.59;4989551;28;108542;-65
2022/04/01 06:01:41;;;;;;;6.35;3.35;;;;;;;4.39;58.83;100577.41;4986733;28;109279;-65
2022/04/01 06:04:36;;;;;;;5.32;3.40;;;;;;;4.40;58.80;100581.72;4981800;28;123561;-65
2022/04/01 06:07:28;;;;;;;7.65;3.22;;;;;;;4.39;58.95;100587.88;4992695;28;122872;-64
2022/04/01 06:10:09;;;;;;;5.47;3.45;;;;;;;4.39;58.71;100593.13;4976807;28;108180;-65
2022/04/01 06:13:26;;;;;;;5.40;2.88;;;;;;;4.38;58.80;100607.13;4982454;28;109814;-64
2022/04/01 06:16:16;;;;;;;4.88;3.20;;;;;;;4.36;58.66;100608.91;4981534;28;125139;-64
2022/04/01 06:19:34;;;;;;;6.57;3.40;;;;;;;4.35;58.74;100622.94;4983246;28;123764;-65
2022/04/01 06:22:04;;;;;;;5.15;3.20;;;;;;;4.35;58.58;100622.94;4975098;28;109419;-65
2022/04/01 06:24:45;;;;;;;4.75;3.10;;;;;;;4.33;58.64;100629.97;4972628;28;109400;-65
2022/04/01 06:27:22;;;;;;;5.40;3.10;;;;;;;4.34;58.64;100626.44;4977642;28;123390;-65
2022/04/01 06:30:05;;;;;;;5.45;2.88;;;;;;;4.35;58.52;100633.44;4985643;28;122993;-64
2022/04/01 06:32:54;;;;;;;5.20;3.13;;;;;;;4.35;58.40;100633.44;4982895;28;109402;-65
2022/04/01 06:35:48;;;;;;;6.05;3.05;;;;;;;4.33;58.38;100635.19;4987910;28;108167;-65
2022/04/01 06:38:32;;;;;;;5.80;3.00;;;;;;;4.32;58.39;100654.47;4979048;28;123356;-64
2022/04/01 06:41:05;;;;;;;4.82;2.50;;;;;;;4.31;58.34;100647.47;4984674;28;123415;-61
2022/04/01 06:43:40;;;;;;;3.85;2.67;;;;;;;4.32;58.47;100672.81;4991226;28;111699;-61
2022/04/01 06:46:41;;;;;;;4.25;2.50;;;;;;;4.31;58.23;100668.47;4992026;28;109162;-61
2022/04/01 06:49:12;;;;;;;5.10;2.30;;;;;;;4.33;58.43;100671.91;4979683;28;123655;-62
2022/04/01 06:52:01;;;;;;;5.45;3.08;;;;;;;4.33;58.54;100666.66;4988352;28;124880;-61
2022/04/01 06:54:47;;;;;;;5.30;2.88;;;;;;;4.33;58.30;100677.16;4987973;28;109515;-61
2022/04/01 06:57:23;;;;;;;5.20;2.47;;;;;;;4.33;58.46;100679.78;4987834;28;109362;-61
2022/04/01 07:00:14;;;;;;;4.43;2.35;;;;;;;4.34;58.33;100676.25;4992298;28;124876;-61
2022/04/01 07:02:41;;;;;;;4.28;2.58;;;;;;;4.35;58.27;100685.88;4974647;28;124066;-61
2022/04/01 07:05:10;;;;;;;3.83;2.50;;;;;;;4.37;58.29;100684.06;4974041;28;108581;-61
2022/04/01 07:07:41;;;;;;;4.78;2.47;;;;;;;4.39;58.15;100686.63;4983288;28;109274;-64
2022/04/01 07:10:13;;;;;;;4.13;2.58;;;;;;;4.40;58.30;100678.75;4967448;28;123251;-64
2022/04/01 07:12:41;;;;;;;3.95;2.53;;;;;;;4.41;58.29;100690.97;4987088;28;124360;-64
2022/04/01 07:15:10;;;;;;;4.38;2.50;;;;;;;4.43;58.17;100694.41;4985330;28;110231;-64
2022/04/01 07:17:39;;;;;;;4.78;2.70;;;;;;;4.45;57.91;100687.38;4979346;28;111060;-63
2022/04/01 07:20:12;;;;;;;4.25;2.40;;;;;;;4.48;58.08;100692.56;4984297;28;124094;-64
2022/04/01 07:22:51;;;;;;;4.60;2.38;;;;;;;4.51;58.00;100698.63;4988513;28;124481;-64
2022/04/01 07:25:21;;;;;;;5.65;2.30;;;;;;;4.53;57.89;100694.22;4976360;28;109349;-63
2022/04/01 07:27:50;;;;;;;4.25;2.22;;;;;;;4.54;57.93;100701.16;4971960;28;108528;-64
2022/04/01 07:30:17;;;;;;;4.53;2.10;;;;;;;4.56;57.79;100704.63;4972844;28;123143;-65
2022/04/01 07:32:45;;;;;;;4.50;2.40;;;;;;;4.57;57.99;100711.59;4975498;28;124707;-65
2022/04/01 07:35:14;;;;;;;4.07;2.38;;;;;;;4.56;57.89;100725.59;4974627;28;109720;-65
2022/04/01 07:37:42;;;;;;;6.80;2.35;;;;;;;4.57;57.96;100711.59;4981278;28;108857;-64
2022/04/01 07:40:24;;;;;;;4.10;2.35;;;;;;;4.57;57.87;100722.09;4978129;28;124341;-64
2022/04/01 07:42:53;;;;;;;4.38;2.42;;;;;;;4.58;58.05;100718.59;4986407;28;123329;-64
2022/04/01 07:45:21;;;;;;;3.72;2.20;;;;;;;4.58;57.68;100723.84;4976462;28;109242;-64
2022/04/01 07:47:50;;;;;;;3.85;2.42;;;;;;;4.59;57.80;100730.78;4981378;28;109986;-64
2022/04/01 07:50:20;;;;;;;3.40;2.10;;;;;;;4.58;57.73;100723.84;4976290;28;124606;-64
2022/04/01 07:52:47;;;;;;;4.07;2.35;;;;;;;4.59;57.94;100736.03;4978258;28;124514;-63
2022/04/01 07:55:17;;;;;;;5.10;2.40;;;;;;;4.61;57.85;100744.72;4981793;28;108679;-63
2022/04/01 07:57:46;;;;;;;4.00;2.38;;;;;;;4.62;57.82;100739.47;4977058;28;108762;-63
2022/04/01 08:00:15;;;;;;;3.80;1.90;;;;;;;4.63;57.93;100750.81;4980498;28;124503;-64
2022/04/01 08:02:44;;;;;;;5.47;2.25;;;;;;;4.64;57.70;100749.91;4990270;28;124212;-64
2022/04/01 08:05:12;;;;;;;3.90;2.10;;;;;;;4.64;57.75;100755.16;4984137;28;110983;-65
2022/04/01 08:07:40;;;;;;;3.40;2.20;;;;;;;4.63;57.75;100758.66;4979524;28;109707;-65
2022/04/01 08:10:09;;;;;;;4.18;2.00;;;;;;;4.65;57.63;100756.88;4974511;28;123880;-61
2022/04/01 08:12:43;;;;;;;4.53;2.22;;;;;;;4.66;57.85;100763.88;4974176;28;123827;-61
2022/04/01 08:15:12;;;;;;;4.07;2.22;;;;;;;4.68;57.87;100762.91;4979571;28;109678;-61
2022/04/01 08:17:39;;;;;;;3.15;1.90;;;;;;;4.70;58.08;100775.16;4988165;28;109502;-61
2022/04/01 08:20:07;;;;;;;5.65;2.20;;;;;;;4.71;57.49;100771.63;4979467;28;123737;-61
2022/04/01 08:22:34;;;;;;;2.75;1.70;;;;;;;4.68;57.61;100773.41;4983416;28;122968;-61
2022/04/01 08:25:02;;;;;;;3.67;1.88;;;;;;;4.70;57.75;100776.00;4979832;28;109573;-61
2022/04/01 08:27:29;;;;;;;3.38;2.15;;;;;;;4.70;57.58;100781.25;4976741;28;108687;-61
2022/04/01 08:29:59;;;;;;;3.63;2.28;;;;;;;4.71;57.51;100783.00;4971494;28;123499;-61
2022/04/01 08:32:29;;;;;;;3.00;1.70;;;;;;;4.71;57.77;100788.25;4974889;28;124462;-61
2022/04/01 08:34:57;;;;;;;3.22;1.90;;;;;;;4.72;57.68;100789.94;4964466;28;109301;-61
2022/04/01 08:37:25;;;;;;;3.88;1.85;;;;;;;4.74;57.38;100788.16;4969318;28;107670;-62
2022/04/01 08:39:53;;;;;;;3.50;1.73;;;;;;;4.77;57.71;100793.34;4984407;28;124058;-61
2022/04/01 08:42:21;;;;;;;4.68;2.08;;;;;;;4.80;57.72;100803.78;4974521;28;123196;-61
2022/04/01 08:44:51;;;;;;;3.88;1.85;;;;;;;4.83;57.62;100798.44;4956529;28;109479;-61
2022/04/01 08:47:18;;;;;;;3.72;1.50;;;;;;;4.86;57.54;100802.78;4956264;28;108351;-61
2022/04/01 08:49:46;;;;;;;3.85;1.92;;;;;;;4.89;57.70;100813.19;4953843;28;125171;-62
2022/04/01 08:52:13;;;;;;;3.97;2.13;;;;;;;4.94;57.41;100813.13;4954612;28;124258;-62
2022/04/01 08:54:41;;;;;;;5.22;1.70;;;;;;;4.96;57.38;100819.19;4953578;28;110080;-62
2022/04/01 08:57:08;;;;;;;2.85;1.48;;;;;;;5.00;57.29;100826.09;4955829;28;108795;-61
2022/04/01 08:59:37;;;;;;;5.10;1.60;;;;;;;5.02;57.16;100825.16;4971482;28;123141;-61
2022/04/01 09:02:09;;;;;;;3.50;1.70;;;;;;;5.04;57.12;100833.00;4953921;28;123704;-61
2022/04/01 09:04:37;;;;;;;4.10;1.55;;;;;;;5.05;56.99;100829.47;4956966;28;109249;-61
2022/04/01 09:07:15;;;;;;;2.78;1.52;;;;;;;5.08;56.94;100837.28;4955829;28;108769;-61
2022/04/01 09:09:43;;;;;;;3.45;1.55;;;;;;;5.11;57.00;100842.47;4952699;28;124161;-61
2022/04/01 09:12:13;;;;;;;3.40;1.85;;;;;;;5.13;56.94;100843.28;4953944;28;124469;-62
2022/04/01 09:14:52;;;;;;;3.63;1.65;;;;;;;5.14;56.71;100845.03;4956121;28;108297;-60
2022/04/01 09:17:19;;;;;;;2.95;1.48;;;;;;;5.16;56.64;100843.22;4956239;28;109046;-61
2022/04/01 09:20:01;;;;;;;3.72;1.85;;;;;;;5.19;56.79;100852.78;4950150;28;124927;-61
2022/04/01 09:22:28;;;;;;;3.97;1.80;;;;;;;5.20;56.41;100855.38;4953239;28;123888;-61
2022/04/01 09:24:59;;;;;;;4.65;2.00;;;;;;;5.21;56.42;100857.09;4953335;28;109038;-61
2022/04/01 09:27:51;;;;;;;3.08;1.67;;;;;;;5.23;56.47;100855.28;4953470;28;109274;-61
2022/04/01 09:30:30;;;;;;;2.72;1.48;;;;;;;5.25;56.36;100864.03;4989873;28;123988;-61
2022/04/01 09:33:01;;;;;;;4.75;1.50;;;;;;;5.26;56.22;100860.50;4993974;28;123314;-61
2022/04/01 09:35:31;;;;;;;2.45;1.35;;;;;;;5.30;56.22;100865.69;4974171;28;110171;-60
2022/04/01 09:38:04;;;;;;;2.45;1.27;;;;;;;5.34;56.33;100862.09;4973813;28;108938;-60
2022/04/01 09:40:35;;;;;;;2.53;1.40;;;;;;;5.36;56.26;100861.13;4994173;28;124592;-60
2022/04/01 09:43:08;;;;;;;3.13;1.50;;;;;;;5.39;56.24;100871.59;4974427;28;124122;-60
2022/04/01 09:45:36;;;;;;;3.25;1.50;;;;;;;5.41;56.11;100868.94;4972534;28;110329;-60
2022/04/01 09:48:06;;;;;;;6.47;1.90;;;;;;;5.42;55.99;100878.50;4973242;28;109915;-60
2022/04/01 09:50:39;;;;;;;2.78;1.58;;;;;;;5.44;55.95;100874.09;4971560;28;124216;-60
2022/04/01 09:53:08;;;;;;;3.53;1.60;;;;;;;5.47;56.02;100879.28;4975845;28;124280;-62
2022/04/01 09:55:37;;;;;;;2.65;1.48;;;;;;;5.47;55.94;100874.88;4986316;28;109032;-63
2022/04/01 09:58:06;;;;;;;4.03;1.85;;;;;;;5.49;56.04;100877.47;4992820;28;108770;-62
2022/04/01 10:00:36;;;;;;;3.85;1.80;;;;;;;5.52;55.84;100887.94;4992331;28;125683;-63
2022/04/01 10:03:05;;;;;;;2.95;1.88;;;;;;;5.52;55.87;100877.41;4994939;28;124267;-62
2022/04/01 10:05:34;;;;;;;3.88;1.83;;;;;;;5.54;55.76;100886.13;4992093;28;109489;-62
2022/04/01 10:08:04;;;;;;;3.15;1.63;;;;;;;5.59;55.91;100883.38;4976903;28;109166;-63
2022/04/01 10:10:32;;;;;;;3.70;1.80;;;;;;;5.62;55.77;100878.91;4985050;28;123976;-63
2022/04/01 10:13:13;;;;;;;3.85;1.92;;;;;;;5.63;55.65;100880.66;4978023;28;123846;-63
2022/04/01 10:15:44;;;;;;;3.45;1.65;;;;;;;5.65;55.58;100880.59;4954798;28;109632;-60
2022/04/01 10:18:34;;;;;;;3.58;1.90;;;;;;;5.65;55.21;100878.84;4969286;28;108922;-61
2022/04/01 10:21:03;;;;;;;3.08;2.05;;;;;;;5.68;55.25;100882.31;4971841;28;123755;-60
2022/04/01 10:23:36;;;;;;;4.13;2.00;;;;;;;5.69;55.40;100876.13;4972236;28;124571;-61
2022/04/01 10:26:08;;;;;;;6.03;2.28;;;;;;;5.72;55.36;100881.31;4974088;28;109107;-61
2022/04/01 10:28:36;;;;;;;4.72;2.53;;;;;;;5.74;55.42;100882.16;4979164;28;109232;-61
2022/04/01 10:31:03;;;;;;;4.15;2.28;;;;;;;5.78;55.35;100878.53;4977238;28;123801;-61
2022/04/01 10:33:38;;;;;;;4.40;1.98;;;;;;;5.81;55.19;100883.72;4978613;28;123872;-61
2022/04/01 10:36:23;;;;;;;3.60;2.08;;;;;;;5.82;55.10;100888.06;4971037;28;110533;-60
2022/04/01 10:39:00;;;;;;;4.10;2.42;;;;;;;5.85;55.09;100882.75;4964738;28;109837;-60
2022/04/01 10:41:28;;;;;;;6.55;2.58;;;;;;;5.87;54.88;100888.81;4976948;28;124755;-60
2022/04/01 10:43:55;;;;;;;3.97;2.40;;;;;;;5.88;54.51;100885.31;4984322;28;124159;-60
2022/04/01 10:46:23;;;;;;;4.60;2.70;;;;;;;5.91;54.86;100885.22;4993050;28;109019;-60
2022/04/01 10:52:22;;;;;;;4.00;2.13;;;;;;;5.96;54.44;100893.88;4990567;28;124901;-60
2022/04/01 10:55:07;;;;;;;3.95;2.20;;;;;;;5.96;54.30;100891.25;4980475;28;123368;-60
2022/04/01 10:57:45;;;;;;;4.82;2.50;;;;;;;5.96;54.46;100899.13;4983061;28;110009;-60
2022/04/01 11:00:17;;;;;;;5.38;3.00;;;;;;;5.99;54.27;100899.06;4972873;28;108916;-62
2022/04/01 11:02:47;;;;;;;5.00;2.50;;;;;;;6.02;54.41;100901.59;4975659;28;124109;-61
2022/04/01 11:05:41;;;;;;;5.10;2.50;;;;;;;6.03;54.27;100900.72;4972550;28;124075;-61
2022/04/01 11:08:20;;;;;;;5.57;2.70;;;;;;;6.06;54.20;100901.53;4977820;28;109103;-60
2022/04/01 11:11:05;;;;;;;4.60;2.60;;;;;;;6.06;54.11;100909.44;4973869;28;109130;-61
2022/04/01 11:13:33;;;;;;;5.50;2.27;;;;;;;6.08;54.10;100912.88;4972885;28;124079;-61
2022/04/01 11:16:25;;;;;;;4.70;2.72;;;;;;;6.08;54.20;100912.88;4971171;28;123658;-61
2022/04/01 11:19:18;;;;;;;4.22;2.40;;;;;;;6.09;54.31;100917.25;4971352;28;108895;-60
2022/04/01 11:21:47;;;;;;;4.45;2.60;;;;;;;6.11;54.10;100918.06;4969366;28;108885;-61
2022/04/01 11:24:22;;;;;;;8.23;3.00;;;;;;;6.12;54.06;100919.78;4973541;28;123973;-61
2022/04/01 11:26:50;;;;;;;3.35;2.42;;;;;;;6.14;54.17;100928.50;4972986;28;124270;-61
2022/04/01 11:29:23;;;;;;;5.60;2.58;;;;;;;6.16;53.98;100924.06;4973363;28;110076;-61
2022/04/01 11:32:02;;;;;;;5.65;2.70;;;;;;;6.15;54.12;100924.97;4984509;28;110261;-60
2022/04/01 11:34:30;;;;;;;4.90;2.70;;;;;;;6.17;53.80;100929.28;4992612;28;124045;-60
2022/04/01 11:37:00;;;;;;;5.65;2.72;;;;;;;6.15;53.55;100927.59;4992146;28;123875;-61
2022/04/01 11:39:28;;;;;;;5.47;2.45;;;;;;;6.15;53.46;100930.25;4990713;28;109457;-60
2022/04/01 11:41:55;;;;;;;5.78;2.60;;;;;;;6.13;53.01;100916.25;4976505;28;108086;-61
2022/04/01 11:44:24;;;;;;;3.88;2.67;;;;;;;6.13;53.42;100926.78;4975932;28;98508;-62
2022/04/01 11:46:54;;;;;;;3.63;2.70;;;;;;;6.16;53.62;100926.69;4964093;28;123978;-61
2022/04/01 11:49:26;;;;;;;4.45;2.58;;;;;;;6.17;53.37;100925.78;4966406;28;108944;-61
2022/04/01 11:51:53;;;;;;;4.25;2.50;;;;;;;6.19;53.38;100926.63;4976755;28;108735;-61
2022/04/01 11:54:21;;;;;;;5.90;2.92;;;;;;;6.23;53.48;100933.53;4991624;28;123937;-60
2022/04/01 11:56:53;;;;;;;4.47;2.70;;;;;;;6.25;53.09;100931.72;4991036;28;123752;-61
2022/04/01 11:59:24;;;;;;;6.47;2.88;;;;;;;6.27;53.15;100935.16;4990703;28;109290;-61
2022/04/01 12:01:58;;;;;;;6.63;3.03;;;;;;;6.29;52.78;100928.13;4989976;28;108969;-61